KDAY/DAY METAR and TAF weather

Enter ICAO airport designator
Station Type Date Time Source
KDAY METAR 2021/05/11 00:56 UTC NOAA

KDAY 110056Z 23003KT 10SM FEW060 SCT080 BKN220 12/03 A3012 RMK AO2 SLP202 T01170033


Station Type Date Time Source
KDAY Decoded METAR 2021/05/11 00:56 UTC NOAA

COX DAYTON INTERNATIONAL, OH, United States (KDAY) 39-54N 084-13W 305M
May 10, 2021 - 08:56 PM EDT / 2021.05.11 0056 UTC
Wind: from the SW (230 degrees) at 3 MPH (3 KT):0
Visibility: 10 mile(s):0
Sky conditions: mostly cloudy
Temperature: 53.1 F (11.7 C)
Dew Point: 37.9 F (3.3 C)
Relative Humidity: 56%
Pressure (altimeter): 30.12 in. Hg (1019 hPa)
ob: KDAY 110056Z 23003KT 10SM FEW060 SCT080 BKN220 12/03 A3012 RMK AO2 SLP202 T01170033
cycle: 1

Station Type Date Time Source
KDAY TAF 2021/05/10 18:48 UTC NOAA

TAF KDAY 101738Z 1018/1118 28004KT P6SM FEW040
FM102200 31006KT P6SM BKN060
FM110200 31004KT P6SM FEW060
FM110600 33005KT P6SM BKN045
FM111500 36009KT P6SM SCT070

Example: see airport list